sensor_id;sensor_type;location;lat;lon;timestamp;P1;durP1;ratioP1;P2;durP2;ratioP2
37203;SDS011;23098;48.054;10.636;2023-02-01T00:01:49;5.43;;;3.42;;
37203;SDS011;23098;48.054;10.636;2023-02-01T00:04:14;9.68;;;5.15;;
37203;SDS011;23098;48.054;10.636;2023-02-01T00:06:40;6.35;;;3.95;;
37203;SDS011;23098;48.054;10.636;2023-02-01T00:09:06;8.40;;;4.30;;
37203;SDS011;23098;48.054;10.636;2023-02-01T00:11:31;8.27;;;5.07;;
37203;SDS011;23098;48.054;10.636;2023-02-01T00:13:57;5.05;;;2.90;;
37203;SDS011;23098;48.054;10.636;2023-02-01T00:16:24;7.82;;;3.25;;
37203;SDS011;23098;48.054;10.636;2023-02-01T00:18:55;7.15;;;3.92;;
37203;SDS011;23098;48.054;10.636;2023-02-01T00:21:22;8.25;;;4.57;;
37203;SDS011;23098;48.054;10.636;2023-02-01T00:23:48;8.82;;;4.38;;
37203;SDS011;23098;48.054;10.636;2023-02-01T00:26:14;8.90;;;5.38;;
37203;SDS011;23098;48.054;10.636;2023-02-01T00:28:42;5.93;;;3.40;;
37203;SDS011;23098;48.054;10.636;2023-02-01T00:31:08;6.68;;;3.88;;
37203;SDS011;23098;48.054;10.636;2023-02-01T00:33:34;7.40;;;4.18;;
37203;SDS011;23098;48.054;10.636;2023-02-01T00:36:00;8.65;;;4.18;;
37203;SDS011;23098;48.054;10.636;2023-02-01T00:38:28;8.95;;;5.47;;
37203;SDS011;23098;48.054;10.636;2023-02-01T00:41:04;8.15;;;4.97;;
37203;SDS011;23098;48.054;10.636;2023-02-01T00:43:31;7.47;;;4.20;;
37203;SDS011;23098;48.054;10.636;2023-02-01T00:45:57;8.65;;;3.95;;
37203;SDS011;23098;48.054;10.636;2023-02-01T00:48:23;9.13;;;4.97;;
37203;SDS011;23098;48.054;10.636;2023-02-01T00:50:50;8.35;;;3.67;;
37203;SDS011;23098;48.054;10.636;2023-02-01T00:53:16;8.48;;;5.07;;
37203;SDS011;23098;48.054;10.636;2023-02-01T00:55:44;10.10;;;5.65;;
37203;SDS011;23098;48.054;10.636;2023-02-01T00:58:10;8.07;;;4.75;;
37203;SDS011;23098;48.054;10.636;2023-02-01T01:00:36;8.27;;;5.63;;
37203;SDS011;23098;48.054;10.636;2023-02-01T01:03:02;10.02;;;5.45;;
37203;SDS011;23098;48.054;10.636;2023-02-01T01:05:27;7.97;;;4.93;;
37203;SDS011;23098;48.054;10.636;2023-02-01T01:07:53;12.48;;;6.82;;
37203;SDS011;23098;48.054;10.636;2023-02-01T01:10:19;11.45;;;6.53;;
37203;SDS011;23098;48.054;10.636;2023-02-01T01:12:45;8.95;;;5.15;;
37203;SDS011;23098;48.054;10.636;2023-02-01T01:15:10;5.50;;;3.58;;
37203;SDS011;23098;48.054;10.636;2023-02-01T01:17:36;6.35;;;4.28;;
37203;SDS011;23098;48.054;10.636;2023-02-01T01:20:02;10.65;;;5.55;;
37203;SDS011;23098;48.054;10.636;2023-02-01T01:22:28;9.25;;;5.47;;
37203;SDS011;23098;48.054;10.636;2023-02-01T01:24:54;9.73;;;4.63;;
37203;SDS011;23098;48.054;10.636;2023-02-01T01:27:19;13.85;;;6.07;;
37203;SDS011;23098;48.054;10.636;2023-02-01T01:29:48;11.25;;;5.63;;
37203;SDS011;23098;48.054;10.636;2023-02-01T01:32:14;10.25;;;5.65;;
37203;SDS011;23098;48.054;10.636;2023-02-01T01:34:40;10.90;;;6.47;;
37203;SDS011;23098;48.054;10.636;2023-02-01T01:37:05;11.38;;;5.78;;
37203;SDS011;23098;48.054;10.636;2023-02-01T01:39:31;8.55;;;4.75;;
37203;SDS011;23098;48.054;10.636;2023-02-01T01:41:56;9.25;;;4.60;;
37203;SDS011;23098;48.054;10.636;2023-02-01T01:47:24;13.82;;;5.35;;
37203;SDS011;23098;48.054;10.636;2023-02-01T01:50:02;9.18;;;5.32;;
37203;SDS011;23098;48.054;10.636;2023-02-01T01:52:31;7.38;;;5.00;;
37203;SDS011;23098;48.054;10.636;2023-02-01T01:54:57;11.55;;;6.22;;
37203;SDS011;23098;48.054;10.636;2023-02-01T01:57:24;7.20;;;4.38;;
37203;SDS011;23098;48.054;10.636;2023-02-01T01:59:56;5.75;;;3.85;;
37203;SDS011;23098;48.054;10.636;2023-02-01T02:02:27;5.60;;;3.42;;
37203;SDS011;23098;48.054;10.636;2023-02-01T02:04:53;5.28;;;3.40;;
37203;SDS011;23098;48.054;10.636;2023-02-01T02:07:20;11.27;;;5.82;;
37203;SDS011;23098;48.054;10.636;2023-02-01T02:09:49;4.40;;;2.95;;
37203;SDS011;23098;48.054;10.636;2023-02-01T02:12:16;5.75;;;3.35;;
37203;SDS011;23098;48.054;10.636;2023-02-01T02:14:41;11.95;;;4.47;;
37203;SDS011;23098;48.054;10.636;2023-02-01T02:17:20;7.78;;;3.65;;
37203;SDS011;23098;48.054;10.636;2023-02-01T02:34:26;9.27;;;3.63;;
37203;SDS011;23098;48.054;10.636;2023-02-01T02:39:58;7.85;;;3.78;;
37203;SDS011;23098;48.054;10.636;2023-02-01T02:42:48;5.45;;;3.50;;
37203;SDS011;23098;48.054;10.636;2023-02-01T02:45:43;5.95;;;3.50;;
37203;SDS011;23098;48.054;10.636;2023-02-01T02:51:13;6.18;;;3.60;;
37203;SDS011;23098;48.054;10.636;2023-02-01T02:54:13;4.70;;;3.58;;
37203;SDS011;23098;48.054;10.636;2023-02-01T02:57:07;7.68;;;4.82;;
37203;SDS011;23098;48.054;10.636;2023-02-01T02:59:54;4.93;;;3.42;;
37203;SDS011;23098;48.054;10.636;2023-02-01T03:02:42;6.63;;;3.72;;
37203;SDS011;23098;48.054;10.636;2023-02-01T03:05:39;6.13;;;3.72;;
37203;SDS011;23098;48.054;10.636;2023-02-01T03:08:17;6.35;;;3.30;;
37203;SDS011;23098;48.054;10.636;2023-02-01T03:18:44;6.63;;;4.35;;
37203;SDS011;23098;48.054;10.636;2023-02-01T03:21:35;6.00;;;3.42;;
37203;SDS011;23098;48.054;10.636;2023-02-01T03:24:10;7.95;;;4.80;;
37203;SDS011;23098;48.054;10.636;2023-02-01T03:26:51;5.88;;;3.70;;
37203;SDS011;23098;48.054;10.636;2023-02-01T03:29:22;8.15;;;4.32;;
37203;SDS011;23098;48.054;10.636;2023-02-01T03:31:54;10.85;;;4.57;;
37203;SDS011;23098;48.054;10.636;2023-02-01T03:34:20;6.60;;;3.22;;
37203;SDS011;23098;48.054;10.636;2023-02-01T03:36:48;5.03;;;3.20;;
37203;SDS011;23098;48.054;10.636;2023-02-01T03:39:39;6.05;;;2.97;;
37203;SDS011;23098;48.054;10.636;2023-02-01T03:42:10;7.43;;;3.75;;
37203;SDS011;23098;48.054;10.636;2023-02-01T03:45:03;6.40;;;4.22;;
37203;SDS011;23098;48.054;10.636;2023-02-01T03:47:40;7.55;;;4.00;;
37203;SDS011;23098;48.054;10.636;2023-02-01T03:50:11;8.05;;;4.80;;
37203;SDS011;23098;48.054;10.636;2023-02-01T03:52:42;6.40;;;3.60;;
37203;SDS011;23098;48.054;10.636;2023-02-01T03:55:09;6.13;;;3.38;;
37203;SDS011;23098;48.054;10.636;2023-02-01T03:57:39;5.20;;;2.78;;
37203;SDS011;23098;48.054;10.636;2023-02-01T04:00:15;4.78;;;3.30;;
37203;SDS011;23098;48.054;10.636;2023-02-01T04:02:41;3.60;;;2.42;;
37203;SDS011;23098;48.054;10.636;2023-02-01T04:05:07;7.10;;;4.30;;
37203;SDS011;23098;48.054;10.636;2023-02-01T04:07:33;7.10;;;4.30;;
37203;SDS011;23098;48.054;10.636;2023-02-01T04:09:58;8.57;;;3.97;;
37203;SDS011;23098;48.054;10.636;2023-02-01T04:12:24;5.80;;;2.95;;
37203;SDS011;23098;48.054;10.636;2023-02-01T04:14:49;8.20;;;3.55;;
37203;SDS011;23098;48.054;10.636;2023-02-01T04:17:15;6.07;;;3.92;;
37203;SDS011;23098;48.054;10.636;2023-02-01T04:19:40;4.18;;;2.85;;
37203;SDS011;23098;48.054;10.636;2023-02-01T04:22:06;7.68;;;3.83;;
37203;SDS011;23098;48.054;10.636;2023-02-01T04:24:31;5.97;;;3.13;;
37203;SDS011;23098;48.054;10.636;2023-02-01T04:26:57;4.57;;;3.38;;
37203;SDS011;23098;48.054;10.636;2023-02-01T04:29:22;5.90;;;2.90;;
37203;SDS011;23098;48.054;10.636;2023-02-01T04:31:48;5.78;;;2.92;;
37203;SDS011;23098;48.054;10.636;2023-02-01T04:34:14;5.05;;;2.90;;
37203;SDS011;23098;48.054;10.636;2023-02-01T04:36:40;8.13;;;3.90;;
37203;SDS011;23098;48.054;10.636;2023-02-01T04:39:05;7.28;;;4.47;;
37203;SDS011;23098;48.054;10.636;2023-02-01T04:41:31;9.38;;;3.08;;
37203;SDS011;23098;48.054;10.636;2023-02-01T04:43:56;8.40;;;4.90;;
37203;SDS011;23098;48.054;10.636;2023-02-01T04:46:22;9.40;;;4.00;;
37203;SDS011;23098;48.054;10.636;2023-02-01T04:48:47;11.90;;;4.38;;
37203;SDS011;23098;48.054;10.636;2023-02-01T04:51:13;8.02;;;4.07;;
37203;SDS011;23098;48.054;10.636;2023-02-01T04:53:40;8.02;;;3.17;;
37203;SDS011;23098;48.054;10.636;2023-02-01T04:56:05;7.10;;;3.70;;
37203;SDS011;23098;48.054;10.636;2023-02-01T04:58:31;5.35;;;3.63;;
37203;SDS011;23098;48.054;10.636;2023-02-01T05:00:57;6.95;;;4.32;;
37203;SDS011;23098;48.054;10.636;2023-02-01T05:03:22;8.82;;;3.88;;
37203;SDS011;23098;48.054;10.636;2023-02-01T05:05:48;9.10;;;4.93;;
37203;SDS011;23098;48.054;10.636;2023-02-01T05:08:13;6.15;;;3.58;;
37203;SDS011;23098;48.054;10.636;2023-02-01T05:10:39;7.93;;;4.60;;
37203;SDS011;23098;48.054;10.636;2023-02-01T05:13:05;9.90;;;5.05;;
37203;SDS011;23098;48.054;10.636;2023-02-01T05:15:50;7.38;;;4.15;;
37203;SDS011;23098;48.054;10.636;2023-02-01T05:18:15;5.57;;;2.97;;
37203;SDS011;23098;48.054;10.636;2023-02-01T05:20:41;8.13;;;5.07;;
37203;SDS011;23098;48.054;10.636;2023-02-01T05:23:07;8.82;;;5.13;;
37203;SDS011;23098;48.054;10.636;2023-02-01T05:25:32;7.93;;;4.95;;
37203;SDS011;23098;48.054;10.636;2023-02-01T05:27:58;8.02;;;4.40;;
37203;SDS011;23098;48.054;10.636;2023-02-01T05:30:23;8.55;;;4.80;;
37203;SDS011;23098;48.054;10.636;2023-02-01T05:32:50;6.97;;;3.95;;
37203;SDS011;23098;48.054;10.636;2023-02-01T05:35:16;6.97;;;4.18;;
37203;SDS011;23098;48.054;10.636;2023-02-01T05:37:42;5.75;;;3.67;;
37203;SDS011;23098;48.054;10.636;2023-02-01T05:40:08;7.75;;;4.70;;
37203;SDS011;23098;48.054;10.636;2023-02-01T05:42:34;7.20;;;4.32;;
37203;SDS011;23098;48.054;10.636;2023-02-01T05:44:59;11.20;;;5.07;;
37203;SDS011;23098;48.054;10.636;2023-02-01T05:47:25;8.10;;;4.78;;
37203;SDS011;23098;48.054;10.636;2023-02-01T05:49:50;6.50;;;4.10;;
37203;SDS011;23098;48.054;10.636;2023-02-01T05:52:16;6.47;;;3.67;;
37203;SDS011;23098;48.054;10.636;2023-02-01T05:54:44;5.28;;;3.25;;
37203;SDS011;23098;48.054;10.636;2023-02-01T05:57:11;5.72;;;3.35;;
37203;SDS011;23098;48.054;10.636;2023-02-01T05:59:37;7.72;;;4.22;;
37203;SDS011;23098;48.054;10.636;2023-02-01T06:02:05;7.40;;;4.03;;
37203;SDS011;23098;48.054;10.636;2023-02-01T06:04:32;5.32;;;3.10;;
37203;SDS011;23098;48.054;10.636;2023-02-01T06:06:57;7.80;;;3.83;;
37203;SDS011;23098;48.054;10.636;2023-02-01T06:09:23;8.07;;;4.00;;
37203;SDS011;23098;48.054;10.636;2023-02-01T06:11:48;8.98;;;4.13;;
37203;SDS011;23098;48.054;10.636;2023-02-01T06:14:14;6.18;;;3.70;;
37203;SDS011;23098;48.054;10.636;2023-02-01T06:16:39;11.40;;;5.50;;
37203;SDS011;23098;48.054;10.636;2023-02-01T06:19:05;9.77;;;4.32;;
37203;SDS011;23098;48.054;10.636;2023-02-01T06:21:30;8.15;;;4.03;;
37203;SDS011;23098;48.054;10.636;2023-02-01T06:23:56;7.53;;;4.72;;
37203;SDS011;23098;48.054;10.636;2023-02-01T06:26:22;6.00;;;3.67;;
37203;SDS011;23098;48.054;10.636;2023-02-01T06:28:48;8.27;;;5.05;;
37203;SDS011;23098;48.054;10.636;2023-02-01T06:31:14;7.00;;;4.03;;
37203;SDS011;23098;48.054;10.636;2023-02-01T06:33:39;7.72;;;4.15;;
37203;SDS011;23098;48.054;10.636;2023-02-01T06:36:06;7.28;;;4.07;;
37203;SDS011;23098;48.054;10.636;2023-02-01T06:38:34;5.95;;;4.28;;
37203;SDS011;23098;48.054;10.636;2023-02-01T06:41:00;5.47;;;3.42;;
37203;SDS011;23098;48.054;10.636;2023-02-01T06:43:26;10.95;;;3.92;;
37203;SDS011;23098;48.054;10.636;2023-02-01T06:45:52;5.90;;;3.35;;
37203;SDS011;23098;48.054;10.636;2023-02-01T06:48:18;5.80;;;3.63;;
37203;SDS011;23098;48.054;10.636;2023-02-01T06:50:43;8.07;;;3.60;;
37203;SDS011;23098;48.054;10.636;2023-02-01T06:53:09;7.85;;;3.97;;
37203;SDS011;23098;48.054;10.636;2023-02-01T06:55:35;7.63;;;4.50;;
37203;SDS011;23098;48.054;10.636;2023-02-01T06:58:01;6.93;;;3.85;;
37203;SDS011;23098;48.054;10.636;2023-02-01T07:00:27;7.35;;;4.70;;
37203;SDS011;23098;48.054;10.636;2023-02-01T07:02:53;5.80;;;3.50;;
37203;SDS011;23098;48.054;10.636;2023-02-01T07:05:20;6.05;;;3.85;;
37203;SDS011;23098;48.054;10.636;2023-02-01T07:07:46;7.15;;;3.75;;
37203;SDS011;23098;48.054;10.636;2023-02-01T07:10:11;5.60;;;3.80;;
37203;SDS011;23098;48.054;10.636;2023-02-01T07:12:37;7.28;;;3.72;;
37203;SDS011;23098;48.054;10.636;2023-02-01T07:15:03;7.78;;;3.63;;
37203;SDS011;23098;48.054;10.636;2023-02-01T07:17:29;5.70;;;3.80;;
37203;SDS011;23098;48.054;10.636;2023-02-01T07:19:55;7.63;;;4.82;;
37203;SDS011;23098;48.054;10.636;2023-02-01T07:22:21;7.55;;;5.00;;
37203;SDS011;23098;48.054;10.636;2023-02-01T07:24:47;6.55;;;3.88;;
37203;SDS011;23098;48.054;10.636;2023-02-01T07:27:12;6.75;;;3.88;;
37203;SDS011;23098;48.054;10.636;2023-02-01T07:29:38;6.28;;;3.58;;
37203;SDS011;23098;48.054;10.636;2023-02-01T07:32:04;8.80;;;3.63;;
37203;SDS011;23098;48.054;10.636;2023-02-01T07:34:29;6.90;;;3.78;;
37203;SDS011;23098;48.054;10.636;2023-02-01T07:36:58;6.57;;;3.70;;
37203;SDS011;23098;48.054;10.636;2023-02-01T07:39:24;3.92;;;3.10;;
37203;SDS011;23098;48.054;10.636;2023-02-01T07:41:50;6.85;;;4.20;;
37203;SDS011;23098;48.054;10.636;2023-02-01T07:44:15;4.07;;;3.10;;
37203;SDS011;23098;48.054;10.636;2023-02-01T07:46:43;4.55;;;3.20;;
37203;SDS011;23098;48.054;10.636;2023-02-01T07:49:09;6.63;;;3.60;;
37203;SDS011;23098;48.054;10.636;2023-02-01T07:51:35;3.88;;;2.42;;
37203;SDS011;23098;48.054;10.636;2023-02-01T07:54:00;6.88;;;3.65;;
37203;SDS011;23098;48.054;10.636;2023-02-01T07:56:26;6.70;;;3.60;;
37203;SDS011;23098;48.054;10.636;2023-02-01T07:58:52;5.45;;;2.97;;
37203;SDS011;23098;48.054;10.636;2023-02-01T08:01:20;6.00;;;2.90;;
37203;SDS011;23098;48.054;10.636;2023-02-01T08:03:51;4.93;;;3.08;;
37203;SDS011;23098;48.054;10.636;2023-02-01T08:06:19;4.65;;;2.70;;
37203;SDS011;23098;48.054;10.636;2023-02-01T08:08:46;12.30;;;3.30;;
37203;SDS011;23098;48.054;10.636;2023-02-01T08:11:13;6.65;;;3.33;;
37203;SDS011;23098;48.054;10.636;2023-02-01T08:13:39;5.80;;;3.38;;
37203;SDS011;23098;48.054;10.636;2023-02-01T08:16:06;5.55;;;3.53;;
37203;SDS011;23098;48.054;10.636;2023-02-01T08:18:32;4.85;;;2.38;;
37203;SDS011;23098;48.054;10.636;2023-02-01T08:21:03;3.92;;;2.40;;
37203;SDS011;23098;48.054;10.636;2023-02-01T08:26:03;9.50;;;3.38;;
37203;SDS011;23098;48.054;10.636;2023-02-01T08:28:35;5.85;;;3.35;;
37203;SDS011;23098;48.054;10.636;2023-02-01T08:31:05;6.07;;;2.88;;
37203;SDS011;23098;48.054;10.636;2023-02-01T08:33:33;5.05;;;3.33;;
37203;SDS011;23098;48.054;10.636;2023-02-01T08:36:00;4.63;;;2.88;;
37203;SDS011;23098;48.054;10.636;2023-02-01T08:38:27;4.07;;;3.08;;
37203;SDS011;23098;48.054;10.636;2023-02-01T08:40:52;4.70;;;2.30;;
37203;SDS011;23098;48.054;10.636;2023-02-01T08:43:18;5.28;;;3.15;;
37203;SDS011;23098;48.054;10.636;2023-02-01T08:45:44;5.80;;;2.92;;
37203;SDS011;23098;48.054;10.636;2023-02-01T08:48:09;5.13;;;3.42;;
37203;SDS011;23098;48.054;10.636;2023-02-01T08:50:34;5.75;;;3.10;;
37203;SDS011;23098;48.054;10.636;2023-02-01T08:53:00;4.00;;;2.60;;
37203;SDS011;23098;48.054;10.636;2023-02-01T08:55:26;4.40;;;3.00;;
37203;SDS011;23098;48.054;10.636;2023-02-01T08:57:51;4.68;;;2.58;;
37203;SDS011;23098;48.054;10.636;2023-02-01T09:00:17;8.60;;;3.88;;
37203;SDS011;23098;48.054;10.636;2023-02-01T09:02:43;3.95;;;2.70;;
37203;SDS011;23098;48.054;10.636;2023-02-01T09:05:08;5.00;;;3.22;;
37203;SDS011;23098;48.054;10.636;2023-02-01T09:07:35;3.90;;;2.80;;
37203;SDS011;23098;48.054;10.636;2023-02-01T09:10:01;5.57;;;2.95;;
37203;SDS011;23098;48.054;10.636;2023-02-01T09:12:28;7.88;;;3.67;;
37203;SDS011;23098;48.054;10.636;2023-02-01T09:14:55;4.95;;;2.65;;
37203;SDS011;23098;48.054;10.636;2023-02-01T09:17:21;7.38;;;3.72;;
37203;SDS011;23098;48.054;10.636;2023-02-01T09:19:47;4.25;;;2.65;;
37203;SDS011;23098;48.054;10.636;2023-02-01T09:22:14;12.30;;;2.60;;
37203;SDS011;23098;48.054;10.636;2023-02-01T09:24:40;6.07;;;2.65;;
37203;SDS011;23098;48.054;10.636;2023-02-01T09:27:06;4.20;;;3.15;;
37203;SDS011;23098;48.054;10.636;2023-02-01T09:29:31;6.05;;;3.33;;
37203;SDS011;23098;48.054;10.636;2023-02-01T09:31:57;6.63;;;2.65;;
37203;SDS011;23098;48.054;10.636;2023-02-01T09:34:22;6.00;;;3.65;;
37203;SDS011;23098;48.054;10.636;2023-02-01T09:36:48;4.35;;;2.55;;
37203;SDS011;23098;48.054;10.636;2023-02-01T09:39:13;4.40;;;2.92;;
37203;SDS011;23098;48.054;10.636;2023-02-01T09:44:32;5.68;;;2.83;;
37203;SDS011;23098;48.054;10.636;2023-02-01T09:47:00;5.87;;;2.77;;
37203;SDS011;23098;48.054;10.636;2023-02-01T09:49:30;3.47;;;2.10;;
37203;SDS011;23098;48.054;10.636;2023-02-01T09:52:01;5.68;;;2.80;;
37203;SDS011;23098;48.054;10.636;2023-02-01T09:54:34;4.87;;;2.70;;
37203;SDS011;23098;48.054;10.636;2023-02-01T09:57:19;4.45;;;2.60;;
37203;SDS011;23098;48.054;10.636;2023-02-01T09:59:52;3.53;;;2.33;;
37203;SDS011;23098;48.054;10.636;2023-02-01T10:02:24;5.10;;;3.20;;
37203;SDS011;23098;48.054;10.636;2023-02-01T10:04:57;4.20;;;2.50;;
37203;SDS011;23098;48.054;10.636;2023-02-01T10:10:43;6.60;;;3.80;;
37203;SDS011;23098;48.054;10.636;2023-02-01T10:21:41;5.38;;;2.70;;
37203;SDS011;23098;48.054;10.636;2023-02-01T10:29:43;4.82;;;3.05;;
37203;SDS011;23098;48.054;10.636;2023-02-01T10:32:32;5.68;;;2.88;;
37203;SDS011;23098;48.054;10.636;2023-02-01T10:38:00;6.63;;;2.97;;
37203;SDS011;23098;48.054;10.636;2023-02-01T10:40:27;6.38;;;2.70;;
37203;SDS011;23098;48.054;10.636;2023-02-01T10:42:54;4.88;;;2.53;;
37203;SDS011;23098;48.054;10.636;2023-02-01T10:45:26;6.43;;;4.00;;
37203;SDS011;23098;48.054;10.636;2023-02-01T10:47:54;3.75;;;2.55;;
37203;SDS011;23098;48.054;10.636;2023-02-01T10:50:33;4.13;;;2.67;;
37203;SDS011;23098;48.054;10.636;2023-02-01T10:53:12;6.35;;;2.88;;
37203;SDS011;23098;48.054;10.636;2023-02-01T10:58:15;5.95;;;2.55;;
37203;SDS011;23098;48.054;10.636;2023-02-01T11:00:47;5.55;;;3.28;;
37203;SDS011;23098;48.054;10.636;2023-02-01T11:03:20;5.03;;;3.67;;
37203;SDS011;23098;48.054;10.636;2023-02-01T11:05:55;6.47;;;3.25;;
37203;SDS011;23098;48.054;10.636;2023-02-01T11:08:21;6.38;;;3.83;;
37203;SDS011;23098;48.054;10.636;2023-02-01T11:10:49;4.28;;;2.72;;
37203;SDS011;23098;48.054;10.636;2023-02-01T11:13:27;5.07;;;3.00;;
37203;SDS011;23098;48.054;10.636;2023-02-01T11:15:55;5.45;;;3.63;;
37203;SDS011;23098;48.054;10.636;2023-02-01T11:18:26;5.93;;;3.72;;
37203;SDS011;23098;48.054;10.636;2023-02-01T11:20:53;4.82;;;2.90;;
37203;SDS011;23098;48.054;10.636;2023-02-01T11:23:26;5.43;;;3.30;;
37203;SDS011;23098;48.054;10.636;2023-02-01T11:25:55;4.95;;;3.30;;
37203;SDS011;23098;48.054;10.636;2023-02-01T11:28:27;5.22;;;2.78;;
37203;SDS011;23098;48.054;10.636;2023-02-01T11:30:56;4.03;;;2.55;;
37203;SDS011;23098;48.054;10.636;2023-02-01T11:33:31;6.35;;;3.38;;
37203;SDS011;23098;48.054;10.636;2023-02-01T11:36:00;4.03;;;2.30;;
37203;SDS011;23098;48.054;10.636;2023-02-01T11:38:32;4.10;;;2.88;;
37203;SDS011;23098;48.054;10.636;2023-02-01T11:44:15;5.50;;;2.70;;
37203;SDS011;23098;48.054;10.636;2023-02-01T11:49:42;5.05;;;2.72;;
37203;SDS011;23098;48.054;10.636;2023-02-01T11:52:28;4.78;;;2.47;;
37203;SDS011;23098;48.054;10.636;2023-02-01T11:58:20;4.35;;;3.10;;
37203;SDS011;23098;48.054;10.636;2023-02-01T12:01:10;3.53;;;2.22;;
37203;SDS011;23098;48.054;10.636;2023-02-01T12:04:21;5.53;;;3.08;;
37203;SDS011;23098;48.054;10.636;2023-02-01T12:06:51;6.53;;;2.78;;
37203;SDS011;23098;48.054;10.636;2023-02-01T12:15:03;3.05;;;2.20;;
37203;SDS011;23098;48.054;10.636;2023-02-01T12:18:00;6.00;;;2.47;;
37203;SDS011;23098;48.054;10.636;2023-02-01T12:29:03;4.10;;;2.30;;
37203;SDS011;23098;48.054;10.636;2023-02-01T12:31:53;4.25;;;2.40;;
37203;SDS011;23098;48.054;10.636;2023-02-01T12:34:45;4.57;;;1.92;;
37203;SDS011;23098;48.054;10.636;2023-02-01T12:40:16;3.10;;;2.05;;
37203;SDS011;23098;48.054;10.636;2023-02-01T12:42:57;3.95;;;2.17;;
37203;SDS011;23098;48.054;10.636;2023-02-01T12:48:23;2.65;;;1.75;;
37203;SDS011;23098;48.054;10.636;2023-02-01T12:51:01;4.07;;;2.63;;
37203;SDS011;23098;48.054;10.636;2023-02-01T12:53:38;3.90;;;2.15;;
37203;SDS011;23098;48.054;10.636;2023-02-01T12:56:20;2.83;;;2.17;;
37203;SDS011;23098;48.054;10.636;2023-02-01T12:58:53;2.85;;;1.90;;
37203;SDS011;23098;48.054;10.636;2023-02-01T13:01:35;3.90;;;1.92;;
37203;SDS011;23098;48.054;10.636;2023-02-01T13:04:17;3.97;;;2.28;;
37203;SDS011;23098;48.054;10.636;2023-02-01T13:07:12;3.38;;;2.15;;
37203;SDS011;23098;48.054;10.636;2023-02-01T13:09:44;5.10;;;2.10;;
37203;SDS011;23098;48.054;10.636;2023-02-01T13:12:19;2.63;;;1.65;;
37203;SDS011;23098;48.054;10.636;2023-02-01T13:14:58;4.35;;;2.70;;
37203;SDS011;23098;48.054;10.636;2023-02-01T13:17:29;5.28;;;2.35;;
37203;SDS011;23098;48.054;10.636;2023-02-01T13:19:59;3.88;;;1.75;;
37203;SDS011;23098;48.054;10.636;2023-02-01T13:22:47;4.43;;;2.17;;
37203;SDS011;23098;48.054;10.636;2023-02-01T13:28:14;4.82;;;2.33;;
37203;SDS011;23098;48.054;10.636;2023-02-01T13:30:53;3.42;;;2.03;;
37203;SDS011;23098;48.054;10.636;2023-02-01T13:33:31;3.90;;;1.83;;
37203;SDS011;23098;48.054;10.636;2023-02-01T13:39:25;2.92;;;2.17;;
37203;SDS011;23098;48.054;10.636;2023-02-01T13:42:21;5.38;;;2.60;;
37203;SDS011;23098;48.054;10.636;2023-02-01T13:47:29;4.70;;;2.42;;
37203;SDS011;23098;48.054;10.636;2023-02-01T13:50:11;4.25;;;2.35;;
37203;SDS011;23098;48.054;10.636;2023-02-01T13:52:44;5.03;;;2.03;;
37203;SDS011;23098;48.054;10.636;2023-02-01T13:57:46;6.18;;;2.40;;
37203;SDS011;23098;48.054;10.636;2023-02-01T14:03:02;5.60;;;2.60;;
37203;SDS011;23098;48.054;10.636;2023-02-01T14:16:10;3.38;;;2.25;;
37203;SDS011;23098;48.054;10.636;2023-02-01T14:26:21;7.40;;;3.45;;
37203;SDS011;23098;48.054;10.636;2023-02-01T14:34:11;4.00;;;2.47;;
37203;SDS011;23098;48.054;10.636;2023-02-01T14:36:55;7.65;;;2.97;;
37203;SDS011;23098;48.054;10.636;2023-02-01T14:39:31;3.42;;;2.42;;
37203;SDS011;23098;48.054;10.636;2023-02-01T14:42:01;7.75;;;2.90;;
37203;SDS011;23098;48.054;10.636;2023-02-01T14:44:31;4.15;;;2.72;;
37203;SDS011;23098;48.054;10.636;2023-02-01T14:47:02;7.18;;;3.13;;
37203;SDS011;23098;48.054;10.636;2023-02-01T14:52:30;6.63;;;2.97;;
37203;SDS011;23098;48.054;10.636;2023-02-01T14:55:00;4.18;;;2.97;;
37203;SDS011;23098;48.054;10.636;2023-02-01T14:57:30;5.93;;;2.88;;
37203;SDS011;23098;48.054;10.636;2023-02-01T15:00:32;3.65;;;2.35;;
37203;SDS011;23098;48.054;10.636;2023-02-01T15:02:54;3.85;;;1.60;;
37203;SDS011;23098;48.054;10.636;2023-02-01T15:05:39;7.47;;;2.38;;
37203;SDS011;23098;48.054;10.636;2023-02-01T15:08:07;5.00;;;2.42;;
37203;SDS011;23098;48.054;10.636;2023-02-01T15:10:43;4.07;;;1.45;;
37203;SDS011;23098;48.054;10.636;2023-02-01T15:13:18;2.57;;;1.20;;
37203;SDS011;23098;48.054;10.636;2023-02-01T15:18:35;3.00;;;1.60;;
37203;SDS011;23098;48.054;10.636;2023-02-01T15:21:02;4.13;;;2.20;;
37203;SDS011;23098;48.054;10.636;2023-02-01T15:23:28;6.32;;;1.85;;
37203;SDS011;23098;48.054;10.636;2023-02-01T15:25:54;4.20;;;2.08;;
37203;SDS011;23098;48.054;10.636;2023-02-01T15:28:20;6.20;;;2.10;;
37203;SDS011;23098;48.054;10.636;2023-02-01T15:31:00;5.50;;;1.73;;
37203;SDS011;23098;48.054;10.636;2023-02-01T15:33:28;3.70;;;2.20;;
37203;SDS011;23098;48.054;10.636;2023-02-01T15:36:07;3.92;;;1.83;;
37203;SDS011;23098;48.054;10.636;2023-02-01T15:43:42;4.63;;;2.00;;
37203;SDS011;23098;48.054;10.636;2023-02-01T15:46:30;6.95;;;2.47;;
37203;SDS011;23098;48.054;10.636;2023-02-01T15:48:58;4.38;;;2.10;;
37203;SDS011;23098;48.054;10.636;2023-02-01T15:51:27;3.05;;;1.85;;
37203;SDS011;23098;48.054;10.636;2023-02-01T15:53:59;3.75;;;1.52;;
37203;SDS011;23098;48.054;10.636;2023-02-01T15:56:36;3.80;;;1.80;;
37203;SDS011;23098;48.054;10.636;2023-02-01T15:59:12;6.65;;;2.20;;
37203;SDS011;23098;48.054;10.636;2023-02-01T16:01:40;2.17;;;1.67;;
37203;SDS011;23098;48.054;10.636;2023-02-01T16:04:15;6.53;;;2.13;;
37203;SDS011;23098;48.054;10.636;2023-02-01T16:06:50;10.02;;;1.83;;
37203;SDS011;23098;48.054;10.636;2023-02-01T16:09:19;6.82;;;2.13;;
37203;SDS011;23098;48.054;10.636;2023-02-01T16:11:59;8.52;;;2.35;;
37203;SDS011;23098;48.054;10.636;2023-02-01T16:14:26;3.38;;;1.38;;
37203;SDS011;23098;48.054;10.636;2023-02-01T16:16:53;8.65;;;1.92;;
37203;SDS011;23098;48.054;10.636;2023-02-01T16:19:20;6.07;;;1.73;;
37203;SDS011;23098;48.054;10.636;2023-02-01T16:21:48;6.47;;;2.15;;
37203;SDS011;23098;48.054;10.636;2023-02-01T16:24:13;3.03;;;1.38;;
37203;SDS011;23098;48.054;10.636;2023-02-01T16:26:39;3.40;;;1.92;;
37203;SDS011;23098;48.054;10.636;2023-02-01T16:29:05;9.65;;;2.28;;
37203;SDS011;23098;48.054;10.636;2023-02-01T16:31:32;16.50;;;2.38;;
37203;SDS011;23098;48.054;10.636;2023-02-01T16:33:59;5.05;;;2.08;;
37203;SDS011;23098;48.054;10.636;2023-02-01T16:36:25;6.65;;;2.08;;
37203;SDS011;23098;48.054;10.636;2023-02-01T16:38:52;4.55;;;2.15;;
37203;SDS011;23098;48.054;10.636;2023-02-01T16:41:18;4.15;;;2.00;;
37203;SDS011;23098;48.054;10.636;2023-02-01T16:43:49;1.48;;;1.08;;
37203;SDS011;23098;48.054;10.636;2023-02-01T16:46:16;6.05;;;1.80;;
37203;SDS011;23098;48.054;10.636;2023-02-01T16:48:54;6.70;;;1.80;;
37203;SDS011;23098;48.054;10.636;2023-02-01T16:51:22;3.50;;;1.73;;
37203;SDS011;23098;48.054;10.636;2023-02-01T16:53:50;4.80;;;1.60;;
37203;SDS011;23098;48.054;10.636;2023-02-01T16:56:17;4.10;;;1.77;;
37203;SDS011;23098;48.054;10.636;2023-02-01T16:58:45;3.42;;;1.42;;
37203;SDS011;23098;48.054;10.636;2023-02-01T17:01:12;5.85;;;2.03;;
37203;SDS011;23098;48.054;10.636;2023-02-01T17:03:39;5.47;;;1.48;;
37203;SDS011;23098;48.054;10.636;2023-02-01T17:06:06;4.85;;;1.80;;
37203;SDS011;23098;48.054;10.636;2023-02-01T17:08:37;13.68;;;2.03;;